Time;durP1;ratioP1;P1;durP2;ratioP2;P2;SDS_P1;SDS_P2;PMS_P1;PMS_P2;Temp;Humidity;BMP_temperature;BMP_pressure;BME280_temperature;BME280_humidity;BME280_pressure;Samples;Min_cycle;Max_cycle;Signal;HPM_P1;HPM_P2
2021/08/03 00:00:14;;;;;;;9.15;4.38;;;;;;;12.38;98.76;95588.38;5045857;28;20569;-78
2021/08/03 00:03:03;;;;;;;9.05;4.40;;;;;;;12.35;98.67;95586.31;5035773;28;20517;-78
2021/08/03 00:05:31;;;;;;;7.35;4.03;;;;;;;12.24;98.90;95585.63;5033850;28;20046;-78
2021/08/03 00:08:02;;;;;;;6.25;3.80;;;;;;;12.23;98.12;95578.78;5033884;28;20038;-78
2021/08/03 00:10:29;;;;;;;8.10;4.40;;;;;;;12.16;98.66;95573.03;5033617;28;20052;-78
2021/08/03 00:12:55;;;;;;;7.78;4.53;;;;;;;12.12;99.26;95575.44;5040663;28;20068;-77
2021/08/03 00:15:22;;;;;;;8.60;4.10;;;;;;;12.14;98.57;95569.91;5034539;28;20492;-78
2021/08/03 00:17:51;;;;;;;10.63;4.35;;;;;;;12.04;98.93;95562.84;5043994;28;20048;-77
2021/08/03 00:20:16;;;;;;;8.98;4.75;;;;;;;11.82;100.00;95557.97;5044935;28;20388;-78
2021/08/03 00:22:43;;;;;;;9.35;4.40;;;;;;;11.73;100.00;95564.91;5033284;28;20072;-77
2021/08/03 00:25:11;;;;;;;8.55;4.30;;;;;;;12.03;99.29;95563.13;5033156;28;20077;-77
2021/08/03 00:27:36;;;;;;;7.18;3.95;;;;;;;11.98;98.79;95565.78;5034049;28;20569;-77
2021/08/03 00:30:03;;;;;;;7.93;4.35;;;;;;;11.89;99.61;95553.16;5045818;28;20041;-77
2021/08/03 00:32:29;;;;;;;14.63;4.07;;;;;;;11.81;99.44;95559.06;5036577;28;20246;-77
2021/08/03 00:34:54;;;;;;;9.02;4.45;;;;;;;11.80;100.00;95557.47;5032978;28;20045;-76
2021/08/03 00:37:20;;;;;;;7.22;4.20;;;;;;;11.90;99.68;95560.03;5033364;28;20492;-77
2021/08/03 00:39:47;;;;;;;7.85;4.18;;;;;;;11.85;98.81;95559.28;5037307;28;20037;-76
2021/08/03 00:42:12;;;;;;;6.85;4.25;;;;;;;11.74;99.36;95555.94;5033460;28;20041;-76
2021/08/03 00:44:50;;;;;;;9.93;4.40;;;;;;;11.79;99.64;95569.06;5047491;28;20044;-77
2021/08/03 00:47:18;;;;;;;7.68;4.25;;;;;;;11.64;100.00;95556.00;5031577;28;20068;-78
2021/08/03 00:49:44;;;;;;;10.07;4.10;;;;;;;11.68;99.56;95562.28;5049884;28;20106;-77
2021/08/03 00:52:13;;;;;;;7.65;4.00;;;;;;;11.64;100.00;95566.53;5037599;28;20064;-76
2021/08/03 00:54:39;;;;;;;7.80;4.05;;;;;;;11.51;100.00;95558.19;5032992;28;20099;-78
2021/08/03 00:57:10;;;;;;;7.30;4.03;;;;;;;11.48;100.00;95564.03;5032992;28;20045;-77
2021/08/03 00:59:36;;;;;;;6.28;4.22;;;;;;;11.49;100.00;95560.31;5043139;28;20041;-77
2021/08/03 01:02:06;;;;;;;6.18;4.18;;;;;;;11.59;100.00;95562.91;5047284;28;20565;-79
2021/08/03 01:04:32;;;;;;;6.20;3.95;;;;;;;11.74;98.27;95571.75;5049090;28;20036;-77
2021/08/03 01:06:57;;;;;;;9.60;3.92;;;;;;;11.69;98.20;95574.41;5055890;28;20090;-78
2021/08/03 01:09:42;;;;;;;11.43;4.25;;;;;;;11.61;99.06;95579.22;5032287;28;20343;-78
2021/08/03 01:12:15;;;;;;;;;;;;;;;11.65;98.35;95573.38;5040448;28;20047;-78
2021/08/03 01:14:46;;;;;;;7.28;3.97;;;;;;;11.56;98.75;95571.31;5060404;28;19924;-78
2021/08/03 01:17:25;;;;;;;7.03;4.32;;;;;;;11.47;99.14;95572.19;5066557;28;20038;-78
2021/08/03 01:19:56;;;;;;;7.10;3.78;;;;;;;11.55;98.61;95580.31;5048971;28;20042;-78
2021/08/03 01:22:40;;;;;;;9.43;4.13;;;;;;;11.53;98.92;95577.16;5058399;28;20050;-78
2021/08/03 01:25:06;;;;;;;9.18;4.50;;;;;;;11.52;99.49;95580.06;5032647;28;20094;-78
2021/08/03 01:27:47;;;;;;;6.82;3.90;;;;;;;11.52;99.20;95575.59;5032476;28;20159;-78
2021/08/03 01:30:13;;;;;;;9.98;4.25;;;;;;;11.43;99.60;95569.31;5038581;28;20119;-78
2021/08/03 01:32:44;;;;;;;8.02;4.38;;;;;;;11.33;100.00;95562.25;5043293;28;20121;-78
2021/08/03 01:35:10;;;;;;;7.32;4.00;;;;;;;11.24;100.00;95554.13;5057506;28;20052;-77
2021/08/03 01:37:36;;;;;;;8.13;4.50;;;;;;;11.22;100.00;95561.53;5032119;28;20499;-78
2021/08/03 01:40:06;;;;;;;11.02;4.30;;;;;;;11.25;100.00;95566.25;5031374;28;20132;-78
2021/08/03 01:42:38;;;;;;;8.82;4.07;;;;;;;11.42;100.00;95570.34;5041828;28;20072;-78
2021/08/03 01:45:05;;;;;;;6.90;4.45;;;;;;;11.30;100.00;95559.38;5044033;28;20049;-78
2021/08/03 01:47:32;;;;;;;8.00;4.28;;;;;;;11.53;99.23;95561.34;5050387;28;20032;-78
2021/08/03 01:50:00;;;;;;;9.90;4.25;;;;;;;11.48;99.86;95550.84;5049781;28;20418;-78
2021/08/03 01:52:27;;;;;;;11.63;4.40;;;;;;;11.56;100.00;95552.88;5043665;28;20045;-79
2021/08/03 01:54:52;;;;;;;6.93;4.57;;;;;;;11.39;100.00;95550.63;5054010;28;20037;-78
2021/08/03 01:57:19;;;;;;;6.70;4.22;;;;;;;11.50;99.63;95561.88;5064196;28;20407;-78
2021/08/03 01:59:46;;;;;;;9.45;4.18;;;;;;;11.54;99.27;95562.91;5051595;28;20041;-79
2021/08/03 02:02:15;;;;;;;6.90;4.45;;;;;;;11.52;99.10;95549.25;5039982;28;20053;-78
2021/08/03 02:04:41;;;;;;;7.20;4.03;;;;;;;11.38;98.54;95548.28;5032436;28;20056;-78
2021/08/03 02:07:08;;;;;;;8.85;4.18;;;;;;;11.42;99.47;95544.00;5032027;28;20046;-78
2021/08/03 02:09:35;;;;;;;7.32;4.13;;;;;;;11.22;99.52;95550.19;5031181;28;20465;-78
2021/08/03 02:12:01;;;;;;;8.93;4.10;;;;;;;11.21;100.00;95546.78;5047993;28;20041;-78
2021/08/03 02:14:27;;;;;;;6.60;4.32;;;;;;;11.12;100.00;95544.97;5047448;28;20521;-78
2021/08/03 02:16:53;;;;;;;7.43;4.05;;;;;;;11.09;100.00;95541.03;5051404;28;20041;-79
2021/08/03 02:19:19;;;;;;;7.32;3.90;;;;;;;11.20;99.61;95539.91;5031001;28;20507;-77
2021/08/03 02:21:46;;;;;;;7.63;4.15;;;;;;;11.03;100.00;95527.13;5034019;28;20065;-78
2021/08/03 02:24:12;;;;;;;9.40;4.00;;;;;;;11.02;100.00;95527.38;5047409;28;20041;-79
2021/08/03 02:26:38;;;;;;;11.23;3.90;;;;;;;10.95;99.69;95524.25;5050941;28;20045;-78
2021/08/03 02:29:06;;;;;;;8.00;3.90;;;;;;;10.89;100.00;95531.41;5049215;28;20041;-78
2021/08/03 02:31:50;;;;;;;7.72;3.78;;;;;;;10.91;100.00;95530.06;5049274;28;20045;-78
2021/08/03 02:34:24;;;;;;;6.82;4.03;;;;;;;11.04;98.72;95527.91;5045039;28;20120;-78
2021/08/03 02:36:55;;;;;;;10.80;4.00;;;;;;;10.99;99.25;95530.56;5043226;28;20107;-78
2021/08/03 02:39:21;;;;;;;8.45;3.95;;;;;;;10.87;99.81;95521.13;5035450;28;20037;-79
2021/08/03 02:41:49;;;;;;;9.45;4.53;;;;;;;10.70;100.00;95518.03;5029930;28;20510;-79
2021/08/03 02:44:16;;;;;;;9.05;4.22;;;;;;;10.70;100.00;95523.31;5029652;28;20047;-79
2021/08/03 02:46:44;;;;;;;12.02;4.30;;;;;;;10.68;100.00;95520.94;5035713;28;20033;-78
2021/08/03 02:49:14;;;;;;;8.85;4.47;;;;;;;10.70;100.00;95518.03;5038991;28;20075;-80
2021/08/03 02:51:41;;;;;;;8.82;4.63;;;;;;;10.96;99.81;95520.56;5036272;28;20064;-78
2021/08/03 02:54:31;;;;;;;8.30;4.38;;;;;;;11.01;99.73;95518.69;5047805;28;20044;-79
2021/08/03 02:56:59;;;;;;;7.70;4.60;;;;;;;10.96;99.99;95515.31;5033727;28;20033;-78
2021/08/03 02:59:28;;;;;;;7.82;4.30;;;;;;;10.97;100.00;95504.50;5035350;28;20045;-78
2021/08/03 03:01:56;;;;;;;7.63;4.45;;;;;;;11.00;100.00;95511.06;5035003;28;20469;-78
2021/08/03 03:04:31;;;;;;;7.22;4.68;;;;;;;11.02;100.00;95508.94;5038691;28;20033;-78
2021/08/03 03:07:02;;;;;;;8.05;4.55;;;;;;;11.05;100.00;95509.19;5031767;28;20041;-78
2021/08/03 03:09:33;;;;;;;9.13;5.32;;;;;;;11.01;99.78;95517.91;5044821;28;20521;-78
2021/08/03 03:11:59;;;;;;;8.38;5.30;;;;;;;11.03;100.00;95521.06;5032467;28;20050;-78
2021/08/03 03:14:27;;;;;;;10.23;5.00;;;;;;;11.02;100.00;95519.47;5040761;28;20045;-79
2021/08/03 03:16:56;;;;;;;8.82;5.00;;;;;;;10.97;100.00;95519.53;5049902;28;20045;-78
2021/08/03 03:19:23;;;;;;;7.55;4.50;;;;;;;11.07;99.85;95511.56;5046888;28;20045;-78
2021/08/03 03:21:50;;;;;;;9.75;4.60;;;;;;;11.05;100.00;95518.97;5045890;28;20037;-79
2021/08/03 03:24:16;;;;;;;10.50;4.68;;;;;;;11.09;100.00;95519.97;5033912;28;20045;-78
2021/08/03 03:26:44;;;;;;;8.65;4.43;;;;;;;11.20;100.00;95521.47;5034539;28;20041;-78
2021/08/03 03:29:11;;;;;;;9.35;4.85;;;;;;;11.17;99.83;95516.75;5044171;28;20064;-79
2021/08/03 03:31:38;;;;;;;8.85;4.53;;;;;;;11.08;100.00;95502.59;5052899;28;20067;-79
2021/08/03 03:34:07;;;;;;;10.00;4.63;;;;;;;11.08;100.00;95505.25;5037723;28;20056;-78
2021/08/03 03:36:34;;;;;;;11.95;4.78;;;;;;;11.16;100.00;95509.94;5054091;28;20045;-78
2021/08/03 03:39:02;;;;;;;9.48;4.75;;;;;;;11.08;100.00;95510.50;5050102;28;20045;-78
2021/08/03 03:41:30;;;;;;;9.38;4.80;;;;;;;11.13;100.00;95505.19;5033737;28;20037;-79
2021/08/03 03:43:56;;;;;;;7.80;4.70;;;;;;;11.10;100.00;95505.75;5033827;28;20438;-78
2021/08/03 03:46:27;;;;;;;9.80;4.88;;;;;;;11.10;100.00;95495.22;5034366;28;20038;-79
2021/08/03 03:49:02;;;;;;;10.25;5.80;;;;;;;11.01;100.00;95507.38;5033866;28;20038;-79
2021/08/03 03:51:29;;;;;;;8.75;5.32;;;;;;;11.01;100.00;95508.16;5034184;28;20113;-78
2021/08/03 03:54:03;;;;;;;14.13;4.82;;;;;;;11.12;100.00;95508.91;5042044;28;20037;-79
2021/08/03 03:56:37;;;;;;;9.05;5.55;;;;;;;11.06;100.00;95520.50;5048943;28;20046;-79
2021/08/03 03:59:04;;;;;;;9.77;5.47;;;;;;;11.08;100.00;95513.16;5044890;28;20044;-78
2021/08/03 04:01:31;;;;;;;9.23;5.40;;;;;;;11.12;100.00;95511.53;5038995;28;20453;-78
2021/08/03 04:04:07;;;;;;;11.05;5.22;;;;;;;11.16;100.00;95515.22;5033977;28;20084;-77
2021/08/03 04:06:33;;;;;;;10.02;5.00;;;;;;;11.19;100.00;95509.41;5033796;28;20484;-79
2021/08/03 04:08:59;;;;;;;11.20;4.95;;;;;;;11.16;100.00;95509.13;5038078;28;20045;-78
2021/08/03 04:11:25;;;;;;;9.02;5.18;;;;;;;11.15;100.00;95511.00;5037167;28;20045;-79
2021/08/03 04:13:52;;;;;;;10.48;5.22;;;;;;;11.14;100.00;95509.41;5043536;28;20114;-79
2021/08/03 04:16:18;;;;;;;10.13;5.00;;;;;;;11.09;100.00;95498.91;5059323;28;20045;-78
2021/08/03 04:18:43;;;;;;;18.63;6.85;;;;;;;11.07;100.00;95501.03;5053092;28;20072;-78
2021/08/03 04:21:09;;;;;;;7.47;4.93;;;;;;;11.03;100.00;95505.25;5049004;28;20041;-78
2021/08/03 04:23:35;;;;;;;10.35;5.18;;;;;;;11.04;100.00;95496.31;5049780;28;20111;-79
2021/08/03 04:26:00;;;;;;;8.80;4.78;;;;;;;11.02;100.00;95493.16;5036480;28;20098;-79
2021/08/03 04:28:27;;;;;;;7.78;4.28;;;;;;;11.08;100.00;95492.06;5035008;28;20085;-78
2021/08/03 04:30:53;;;;;;;8.70;4.90;;;;;;;11.06;100.00;95489.72;5050819;28;20069;-78
2021/08/03 04:33:18;;;;;;;11.32;5.05;;;;;;;11.08;100.00;95486.81;5049360;28;20482;-78
2021/08/03 04:35:44;;;;;;;8.55;4.95;;;;;;;10.99;100.00;95483.97;5041618;28;20037;-79
2021/08/03 04:38:10;;;;;;;14.30;5.00;;;;;;;11.09;100.00;95483.09;5061195;28;20051;-78
2021/08/03 04:40:35;;;;;;;8.77;5.03;;;;;;;11.11;100.00;95486.25;5054110;28;20549;-79
2021/08/03 04:43:01;;;;;;;7.82;4.80;;;;;;;11.31;100.00;95480.06;5051195;28;20073;-78
2021/08/03 04:45:26;;;;;;;7.53;4.47;;;;;;;11.17;100.00;95466.72;5032647;28;20388;-79
2021/08/03 04:47:52;;;;;;;10.18;4.97;;;;;;;11.04;100.00;95469.97;5033002;28;20495;-79
2021/08/03 04:50:22;;;;;;;10.68;5.32;;;;;;;10.80;100.00;95465.34;5038570;28;20403;-79
2021/08/03 04:52:48;;;;;;;9.95;5.25;;;;;;;10.84;100.00;95474.28;5038490;28;20115;-78
2021/08/03 04:55:14;;;;;;;7.68;5.10;;;;;;;10.97;100.00;95472.13;5037342;28;20055;-79
2021/08/03 04:57:40;;;;;;;10.13;4.95;;;;;;;11.32;100.00;95470.31;5053342;28;20045;-78
2021/08/03 05:00:08;;;;;;;7.97;5.07;;;;;;;11.24;100.00;95463.78;5049192;28;20045;-79
2021/08/03 05:02:34;;;;;;;9.40;5.05;;;;;;;11.06;100.00;95465.22;5050354;28;20053;-78
2021/08/03 05:04:59;;;;;;;9.57;5.88;;;;;;;11.01;100.00;95454.72;5044553;28;20556;-79
2021/08/03 05:07:25;;;;;;;11.07;6.07;;;;;;;11.09;100.00;95457.56;5049832;28;20048;-78
2021/08/03 05:09:51;;;;;;;10.80;6.57;;;;;;;11.15;100.00;95462.78;5044167;28;20095;-79
2021/08/03 05:12:16;;;;;;;9.95;6.00;;;;;;;11.22;100.00;95456.16;5031760;28;20073;-78
2021/08/03 05:14:42;;;;;;;10.18;5.50;;;;;;;11.27;100.00;95453.47;5030971;28;20107;-79
2021/08/03 05:17:07;;;;;;;11.82;6.22;;;;;;;11.38;100.00;95453.44;5057318;28;20515;-77
2021/08/03 05:19:33;;;;;;;11.82;6.20;;;;;;;11.39;100.00;95441.81;5048031;28;20199;-79
2021/08/03 05:21:58;;;;;;;12.77;5.82;;;;;;;11.45;100.00;95448.63;5047484;28;20045;-78
2021/08/03 05:24:27;;;;;;;12.32;6.07;;;;;;;11.73;100.00;95454.19;5048534;28;20067;-79
2021/08/03 05:26:55;;;;;;;11.25;6.60;;;;;;;11.87;100.00;95444.56;5031790;28;20466;-79
2021/08/03 05:29:20;;;;;;;10.23;6.00;;;;;;;11.85;100.00;95444.06;5031058;28;20045;-78
2021/08/03 05:31:46;;;;;;;12.50;5.80;;;;;;;11.88;100.00;95446.13;5031682;28;20096;-79
2021/08/03 05:34:12;;;;;;;11.82;5.88;;;;;;;11.88;100.00;95448.78;5043494;28;20043;-79
2021/08/03 05:36:39;;;;;;;11.20;5.78;;;;;;;11.93;100.00;95448.72;5033193;28;20045;-79
2021/08/03 05:39:06;;;;;;;14.05;6.00;;;;;;;11.99;100.00;95456.59;5039973;28;20045;-78
2021/08/03 05:41:32;;;;;;;9.57;5.53;;;;;;;11.95;100.00;95446.63;5042702;28;20048;-79
2021/08/03 05:43:58;;;;;;;9.52;6.13;;;;;;;11.93;100.00;95459.28;5042707;28;20049;-79
2021/08/03 05:46:23;;;;;;;10.77;6.20;;;;;;;12.11;100.00;95441.97;5033322;28;20049;-79
2021/08/03 05:48:49;;;;;;;9.70;5.75;;;;;;;12.12;100.00;95455.94;5034930;28;20038;-78
2021/08/03 05:51:14;;;;;;;11.88;6.25;;;;;;;12.35;100.00;95458.88;5048097;28;20064;-80
2021/08/03 05:53:40;;;;;;;10.55;5.85;;;;;;;12.41;100.00;95460.38;5044922;28;20075;-80
2021/08/03 05:56:06;;;;;;;10.02;5.60;;;;;;;12.78;100.00;95456.22;5050685;28;20041;-80
2021/08/03 05:58:32;;;;;;;10.18;5.60;;;;;;;12.70;100.00;95454.22;5062554;28;20041;-80
2021/08/03 06:00:57;;;;;;;9.70;5.50;;;;;;;12.70;100.00;95459.50;5070633;28;20501;-80
2021/08/03 06:03:23;;;;;;;10.93;5.50;;;;;;;12.75;100.00;95454.16;5045259;28;20044;-78
2021/08/03 06:05:49;;;;;;;7.43;4.78;;;;;;;12.84;100.00;95455.09;5051738;28;20052;-78
2021/08/03 06:08:22;;;;;;;8.93;4.90;;;;;;;12.83;100.00;95458.81;5047632;28;20104;-79
2021/08/03 06:10:51;;;;;;;10.20;5.25;;;;;;;13.09;100.00;95461.09;5037955;28;20483;-77
2021/08/03 06:13:20;;;;;;;9.85;5.03;;;;;;;13.30;98.67;95459.75;5046282;28;20052;-79
2021/08/03 06:15:49;;;;;;;12.65;5.32;;;;;;;13.35;98.94;95453.63;5036351;28;20040;-78
2021/08/03 06:18:20;;;;;;;8.75;4.90;;;;;;;13.39;99.24;95459.09;5041611;28;20403;-77
2021/08/03 06:20:47;;;;;;;7.95;4.70;;;;;;;13.42;99.17;95463.81;5045375;28;20387;-77
2021/08/03 06:23:13;;;;;;;10.38;4.63;;;;;;;13.64;98.32;95471.13;5051365;28;20103;-77
2021/08/03 06:25:40;;;;;;;11.30;4.90;;;;;;;13.57;98.40;95471.50;5051101;28;20046;-76
2021/08/03 06:28:06;;;;;;;8.25;4.70;;;;;;;13.77;96.03;95465.09;5049178;28;20106;-77
2021/08/03 06:30:36;;;;;;;8.45;4.82;;;;;;;13.80;97.17;95469.03;5061251;28;20056;-77
2021/08/03 06:33:02;;;;;;;7.00;4.40;;;;;;;13.98;96.40;95470.81;5045820;28;20041;-77
2021/08/03 06:35:28;;;;;;;8.80;4.63;;;;;;;14.06;97.10;95465.94;5056951;28;20033;-77
2021/08/03 06:37:54;;;;;;;7.97;4.50;;;;;;;14.07;98.00;95464.88;5059912;28;20081;-78
2021/08/03 06:40:19;;;;;;;9.32;5.05;;;;;;;14.14;97.64;95467.91;5038036;28;20048;-78
2021/08/03 06:42:54;;;;;;;8.57;4.50;;;;;;;14.38;93.43;95471.16;5036751;28;20041;-78
2021/08/03 06:45:26;;;;;;;8.77;4.50;;;;;;;14.19;95.76;95454.56;5056448;28;20040;-78
2021/08/03 06:48:11;;;;;;;7.25;4.45;;;;;;;14.09;98.04;95465.34;5051631;28;20082;-79
2021/08/03 06:50:54;;;;;;;9.15;4.90;;;;;;;14.04;98.45;95459.06;5042949;28;20048;-78
2021/08/03 06:53:21;;;;;;;10.82;4.90;;;;;;;14.01;98.63;95454.38;5043190;28;20218;-79
2021/08/03 06:55:47;;;;;;;9.52;4.78;;;;;;;13.96;98.96;95446.50;5044290;28;20037;-79
2021/08/03 06:58:29;;;;;;;10.40;4.75;;;;;;;14.13;96.75;95447.81;5053941;28;20462;-78
2021/08/03 07:00:57;;;;;;;7.45;4.38;;;;;;;13.99;99.12;95438.00;5045913;28;20076;-78
2021/08/03 07:03:24;;;;;;;6.85;4.25;;;;;;;14.06;98.61;95442.13;5053951;28;20049;-78
2021/08/03 07:05:56;;;;;;;7.15;4.30;;;;;;;14.07;98.08;95456.94;5049184;28;20092;-78
2021/08/03 07:08:22;;;;;;;7.13;4.50;;;;;;;14.02;99.76;95450.66;5034407;28;20041;-79
2021/08/03 07:10:51;;;;;;;8.18;4.50;;;;;;;14.08;100.00;95453.19;5033797;28;20048;-78
2021/08/03 07:13:18;;;;;;;10.73;4.75;;;;;;;14.08;99.81;95447.91;5041321;28;20029;-78
2021/08/03 07:15:45;;;;;;;6.88;4.10;;;;;;;14.38;96.01;95444.69;5049143;28;20873;-78
2021/08/03 07:18:11;;;;;;;9.43;4.40;;;;;;;14.42;97.38;95457.31;5047081;28;20091;-78
2021/08/03 07:20:41;;;;;;;6.80;4.40;;;;;;;14.35;98.36;95453.22;5044943;28;20117;-79
2021/08/03 07:23:09;;;;;;;7.80;4.22;;;;;;;14.67;95.48;95448.13;5035414;28;20033;-79
2021/08/03 07:25:35;;;;;;;13.52;5.53;;;;;;;14.75;98.45;95449.28;5043828;28;20141;-79
2021/08/03 07:28:01;;;;;;;8.10;4.65;;;;;;;14.70;97.83;95458.13;5064242;28;20073;-80
2021/08/03 07:30:26;;;;;;;9.05;4.50;;;;;;;14.73;97.86;95447.72;5040789;28;20057;-79
2021/08/03 07:32:52;;;;;;;7.40;3.90;;;;;;;15.37;90.88;95449.50;5040740;28;20052;-80
2021/08/03 07:35:18;;;;;;;7.72;3.88;;;;;;;15.62;89.07;95449.97;5055385;28;20395;-79
2021/08/03 07:37:43;;;;;;;6.85;3.88;;;;;;;15.35;88.35;95451.66;5036090;28;20466;-79
2021/08/03 07:40:09;;;;;;;6.57;3.88;;;;;;;15.30;90.34;95438.53;5047669;28;20400;-78
2021/08/03 07:42:35;;;;;;;7.50;3.60;;;;;;;15.32;86.68;95444.31;5043019;28;20049;-80
2021/08/03 07:45:01;;;;;;;7.05;3.60;;;;;;;15.35;84.90;95441.06;5034275;28;20042;-80
2021/08/03 07:47:27;;;;;;;8.38;4.05;;;;;;;15.48;88.67;95443.97;5043568;28;20082;-82
2021/08/03 07:49:53;;;;;;;7.93;3.88;;;;;;;15.49;91.79;95446.31;5059671;28;20060;-77
2021/08/03 07:52:19;;;;;;;6.15;3.63;;;;;;;15.72;85.81;95449.72;5051630;28;20049;-79
2021/08/03 07:54:46;;;;;;;7.40;2.85;;;;;;;15.75;82.04;95438.50;5054122;28;20045;-78
2021/08/03 07:57:12;;;;;;;5.63;2.90;;;;;;;15.71;84.73;95442.06;5038926;28;20541;-79
2021/08/03 07:59:37;;;;;;;5.18;2.90;;;;;;;15.53;85.05;95441.16;5039174;28;20041;-80
2021/08/03 08:02:03;;;;;;;6.25;3.35;;;;;;;15.44;89.65;95443.00;5051969;28;20061;-80
2021/08/03 08:04:28;;;;;;;8.38;3.53;;;;;;;15.38;89.19;95435.16;5037151;28;20576;-78
2021/08/03 08:06:54;;;;;;;4.88;3.20;;;;;;;15.36;91.07;95442.63;5042822;28;20109;-77
2021/08/03 08:09:19;;;;;;;7.60;3.30;;;;;;;15.34;91.08;95439.50;5046273;28;20049;-78
2021/08/03 08:11:45;;;;;;;8.88;3.20;;;;;;;15.28;90.53;95440.69;5036078;28;20069;-79
2021/08/03 08:14:11;;;;;;;6.13;3.30;;;;;;;15.39;89.55;95436.72;5037682;28;20044;-80
2021/08/03 08:16:37;;;;;;;6.57;3.22;;;;;;;15.66;83.95;95434.22;5049207;28;20494;-78
2021/08/03 08:19:02;;;;;;;5.68;3.35;;;;;;;15.65;88.07;95454.69;5040758;28;20045;-78
2021/08/03 08:21:33;;;;;;;5.32;2.90;;;;;;;16.04;80.48;95444.47;5043592;28;20038;-79
2021/08/03 08:23:59;;;;;;;4.60;2.58;;;;;;;16.09;82.16;95442.47;5036341;28;20044;-79
2021/08/03 08:26:25;;;;;;;6.75;4.10;;;;;;;15.96;81.93;95437.22;5034508;28;20045;-77
2021/08/03 08:28:50;;;;;;;6.75;3.50;;;;;;;15.83;87.21;95429.06;5046938;28;20126;-79
2021/08/03 08:31:16;;;;;;;10.48;3.03;;;;;;;15.90;84.75;95425.97;5038635;28;20777;-77
2021/08/03 08:33:42;;;;;;;5.57;3.15;;;;;;;15.86;87.69;95427.66;5046152;28;20034;-79
2021/08/03 08:36:07;;;;;;;4.85;3.25;;;;;;;16.00;88.15;95424.91;5041688;28;20099;-78
2021/08/03 08:38:33;;;;;;;5.38;2.83;;;;;;;16.15;83.71;95421.06;5045136;28;20053;-77
2021/08/03 08:40:59;;;;;;;4.63;2.63;;;;;;;16.10;80.49;95422.00;5045356;28;20056;-78
2021/08/03 08:43:25;;;;;;;4.47;2.40;;;;;;;16.10;75.95;95417.47;5051106;28;20044;-77
2021/08/03 08:45:54;;;;;;;5.15;2.40;;;;;;;16.65;67.11;95426.06;5059135;28;20516;-78
2021/08/03 08:48:20;;;;;;;3.95;2.30;;;;;;;16.98;66.53;95428.31;5049663;28;20053;-77
2021/08/03 08:50:46;;;;;;;9.75;2.33;;;;;;;17.21;65.61;95430.81;5042091;28;20037;-77
2021/08/03 08:53:12;;;;;;;4.50;2.40;;;;;;;17.13;68.58;95429.75;5061351;28;20520;-78
2021/08/03 08:55:38;;;;;;;4.15;2.50;;;;;;;17.00;68.10;95426.13;5038428;28;20040;-78
2021/08/03 08:58:03;;;;;;;3.50;2.25;;;;;;;17.30;67.30;95426.28;5056687;28;20697;-78
2021/08/03 09:00:29;;;;;;;6.03;2.55;;;;;;;17.24;71.86;95415.03;5054180;28;20041;-79
2021/08/03 09:02:56;;;;;;;5.63;2.50;;;;;;;17.23;68.41;95418.00;5047975;28;20048;-79
2021/08/03 09:05:28;;;;;;;4.50;2.75;;;;;;;17.35;69.23;95418.13;5049862;28;20041;-78
2021/08/03 09:07:57;;;;;;;7.10;2.72;;;;;;;17.78;69.17;95425.25;5040778;28;20080;-75
2021/08/03 09:10:49;;;;;;;4.60;2.60;;;;;;;18.06;66.40;95422.25;5045838;28;20033;-78
2021/08/03 09:13:16;;;;;;;5.40;2.47;;;;;;;18.34;64.29;95427.13;5047737;28;20099;-77
2021/08/03 09:15:44;;;;;;;5.53;2.63;;;;;;;18.38;65.66;95422.72;5042180;28;20050;-77
2021/08/03 09:18:16;;;;;;;6.07;2.83;;;;;;;18.64;61.16;95419.13;5040771;28;20511;-78
2021/08/03 09:20:45;;;;;;;5.47;3.00;;;;;;;18.43;70.16;95419.91;5037797;28;20049;-77
2021/08/03 09:23:11;;;;;;;7.05;2.97;;;;;;;18.77;62.74;95412.78;5041711;28;20694;-77
2021/08/03 09:25:38;;;;;;;4.55;2.75;;;;;;;19.07;60.18;95404.75;5045638;28;20032;-77
2021/08/03 09:28:08;;;;;;;7.70;2.83;;;;;;;19.04;62.55;95400.06;5039208;28;20068;-77
2021/08/03 09:30:38;;;;;;;6.88;3.00;;;;;;;19.16;59.50;95402.00;5037981;28;20050;-77
2021/08/03 09:33:06;;;;;;;4.38;2.65;;;;;;;19.14;59.90;95399.66;5038949;28;20037;-77
2021/08/03 09:35:33;;;;;;;6.38;3.03;;;;;;;19.09;64.78;95397.19;5034290;28;20625;-77
2021/08/03 09:38:00;;;;;;;4.93;2.80;;;;;;;19.37;61.99;95402.00;5035570;28;20053;-78
2021/08/03 09:40:31;;;;;;;6.43;2.33;;;;;;;19.68;57.01;95395.41;5028912;28;20038;-78
2021/08/03 09:43:01;;;;;;;4.15;2.50;;;;;;;19.63;59.03;95392.94;5031971;28;20036;-78
2021/08/03 09:45:28;;;;;;;7.30;3.47;;;;;;;19.54;58.14;95401.81;5055273;28;20037;-77
2021/08/03 09:48:12;;;;;;;4.68;2.92;;;;;;;19.80;57.77;95398.13;5044206;28;20041;-78
2021/08/03 09:50:58;;;;;;;7.03;3.33;;;;;;;19.79;57.71;95396.56;5039894;28;20044;-77
2021/08/03 09:53:44;;;;;;;4.43;3.03;;;;;;;19.54;59.00;95398.38;5037654;28;20049;-77
2021/08/03 09:56:17;;;;;;;4.57;2.90;;;;;;;20.05;55.81;95390.16;5039785;28;20414;-77
2021/08/03 09:58:56;;;;;;;4.75;2.88;;;;;;;20.12;56.32;95398.38;5044256;28;20060;-77
2021/08/03 10:01:23;;;;;;;7.80;2.83;;;;;;;19.69;56.89;95386.28;5035317;28;20038;-77
2021/08/03 10:03:51;;;;;;;5.00;3.05;;;;;;;19.94;65.58;95391.69;5039701;28;20068;-78
2021/08/03 10:06:18;;;;;;;5.55;2.97;;;;;;;20.45;62.94;95384.13;5039082;28;20562;-80
2021/08/03 10:08:49;;;;;;;5.88;2.90;;;;;;;19.95;58.53;95390.59;5035288;28;20725;-77
2021/08/03 10:11:15;;;;;;;5.03;2.97;;;;;;;20.19;57.98;95387.16;5046363;28;20049;-77
2021/08/03 10:13:42;;;;;;;7.55;3.20;;;;;;;20.40;59.61;95381.69;5034323;28;20048;-77
2021/08/03 10:16:08;;;;;;;6.43;3.10;;;;;;;20.13;56.66;95373.25;5038411;28;20092;-79
2021/08/03 10:18:38;;;;;;;7.63;3.05;;;;;;;20.18;57.14;95375.69;5040539;28;20045;-77
2021/08/03 10:21:04;;;;;;;4.93;3.17;;;;;;;20.40;58.30;95370.97;5032210;28;20048;-79
2021/08/03 10:23:32;;;;;;;6.93;3.00;;;;;;;20.49;56.70;95369.00;5044327;28;20056;-77
2021/08/03 10:25:58;;;;;;;5.57;3.22;;;;;;;20.72;55.52;95365.88;5043850;28;20037;-77
2021/08/03 10:28:26;;;;;;;5.63;3.10;;;;;;;20.88;55.09;95358.69;5032600;28;20056;-78
2021/08/03 10:30:54;;;;;;;5.65;3.35;;;;;;;21.41;57.31;95363.16;5048372;28;20037;-77
2021/08/03 10:33:39;;;;;;;5.13;3.28;;;;;;;21.94;53.54;95366.44;5053991;28;20676;-78
2021/08/03 10:36:04;;;;;;;;;;;;;;;21.63;56.76;95353.81;5045826;28;20049;-77
2021/08/03 10:38:30;;;;;;;5.40;3.20;;;;;;;21.16;54.65;95357.13;5030849;28;20052;-76
2021/08/03 10:40:57;;;;;;;7.18;3.28;;;;;;;21.20;55.37;95361.44;5035694;28;20112;-76
2021/08/03 10:43:33;;;;;;;5.50;3.28;;;;;;;21.05;51.68;95356.84;5032282;28;20530;-78
2021/08/03 10:46:26;;;;;;;7.88;3.25;;;;;;;21.08;52.25;95361.53;5036679;28;20067;-74
2021/08/03 10:48:54;;;;;;;6.32;3.10;;;;;;;21.38;54.59;95359.25;5041458;28;20060;-77
2021/08/03 10:51:20;;;;;;;8.20;3.40;;;;;;;21.66;57.28;95352.34;5041245;28;20036;-77
2021/08/03 10:53:52;;;;;;;5.68;3.28;;;;;;;22.18;52.70;95356.63;5031310;28;20502;-80
2021/08/03 10:56:18;;;;;;;6.57;3.17;;;;;;;22.37;49.68;95350.59;5032347;28;20076;-78
2021/08/03 10:58:44;;;;;;;6.07;3.60;;;;;;;22.26;49.91;95353.00;5033560;28;20102;-79
2021/08/03 11:01:10;;;;;;;5.63;3.45;;;;;;;22.56;48.45;95344.50;5032857;28;20407;-79
2021/08/03 11:03:35;;;;;;;6.55;3.35;;;;;;;22.53;48.59;95339.84;5031148;28;20053;-78
2021/08/03 11:06:04;;;;;;;5.80;3.30;;;;;;;21.69;51.49;95340.94;5030556;28;20041;-82
2021/08/03 11:08:40;;;;;;;6.40;3.20;;;;;;;22.64;49.03;95335.47;5031364;28;20041;-80
2021/08/03 11:11:19;;;;;;;4.90;3.22;;;;;;;23.73;50.39;95326.78;5031169;28;20614;-77
2021/08/03 11:13:50;;;;;;;5.78;3.45;;;;;;;23.76;47.74;95331.44;5030540;28;20096;-79
2021/08/03 11:16:24;;;;;;;6.72;3.70;;;;;;;23.30;49.70;95330.28;5032552;28;20503;-78
2021/08/03 11:18:54;;;;;;;7.80;3.67;;;;;;;22.70;46.82;95327.16;5032287;28;20525;-80
2021/08/03 11:21:24;;;;;;;6.53;3.47;;;;;;;22.46;51.28;95328.97;5031016;28;20045;-79
2021/08/03 11:23:56;;;;;;;8.13;3.83;;;;;;;23.09;46.48;95322.56;5037199;28;20043;-79
2021/08/03 11:26:24;;;;;;;7.55;3.70;;;;;;;22.73;52.42;95315.72;5043356;28;20099;-79
2021/08/03 11:29:08;;;;;;;7.03;3.50;;;;;;;22.23;53.50;95316.19;5040742;28;20037;-78
2021/08/03 11:31:47;;;;;;;8.38;3.47;;;;;;;22.52;52.84;95316.81;5033095;28;20480;-78
2021/08/03 11:34:16;;;;;;;7.43;3.60;;;;;;;23.01;48.19;95310.13;5029399;28;20065;-79